sensor_id;sensor_type;location;lat;lon;timestamp;pressure;altitude;pressure_sealevel;temperature;humidity
21545;BME280;10933;50.754;11.508;2022-07-09T00:00:33;100643.19;;;13.20;100.00
21545;BME280;10933;50.754;11.508;2022-07-09T00:03:16;100638.72;;;13.14;100.00
21545;BME280;10933;50.754;11.508;2022-07-09T00:06:01;100643.94;;;13.04;100.00
21545;BME280;10933;50.754;11.508;2022-07-09T00:11:30;100646.19;;;12.95;100.00
21545;BME280;10933;50.754;11.508;2022-07-09T00:13:57;100644.22;;;12.90;100.00
21545;BME280;10933;50.754;11.508;2022-07-09T00:16:25;100650.34;;;12.86;100.00
21545;BME280;10933;50.754;11.508;2022-07-09T00:18:52;100641.88;;;12.82;100.00
21545;BME280;10933;50.754;11.508;2022-07-09T00:21:23;100641.03;;;12.82;100.00
21545;BME280;10933;50.754;11.508;2022-07-09T00:23:57;100643.56;;;12.72;100.00
21545;BME280;10933;50.754;11.508;2022-07-09T00:26:26;100642.28;;;12.62;100.00
21545;BME280;10933;50.754;11.508;2022-07-09T00:28:58;100634.16;;;12.51;100.00
21545;BME280;10933;50.754;11.508;2022-07-09T00:31:24;100630.31;;;12.47;100.00
21545;BME280;10933;50.754;11.508;2022-07-09T00:33:50;100637.94;;;12.50;100.00
21545;BME280;10933;50.754;11.508;2022-07-09T00:36:16;100627.22;;;12.43;100.00
21545;BME280;10933;50.754;11.508;2022-07-09T00:38:49;100633.94;;;12.41;100.00
21545;BME280;10933;50.754;11.508;2022-07-09T00:41:18;100636.31;;;12.37;100.00
21545;BME280;10933;50.754;11.508;2022-07-09T00:43:54;100633.25;;;12.33;100.00
21545;BME280;10933;50.754;11.508;2022-07-09T00:46:25;100630.75;;;12.32;100.00
21545;BME280;10933;50.754;11.508;2022-07-09T00:48:52;100624.53;;;12.31;100.00
21545;BME280;10933;50.754;11.508;2022-07-09T00:51:19;100630.88;;;12.25;100.00
21545;BME280;10933;50.754;11.508;2022-07-09T00:53:46;100621.72;;;12.26;100.00
21545;BME280;10933;50.754;11.508;2022-07-09T00:59:15;100630.88;;;12.25;100.00
21545;BME280;10933;50.754;11.508;2022-07-09T01:02:15;100622.19;;;12.23;100.00
21545;BME280;10933;50.754;11.508;2022-07-09T01:04:43;100610.16;;;12.19;100.00
21545;BME280;10933;50.754;11.508;2022-07-09T01:07:21;100609.72;;;12.22;100.00
21545;BME280;10933;50.754;11.508;2022-07-09T01:10:09;100606.06;;;12.28;100.00
21545;BME280;10933;50.754;11.508;2022-07-09T01:12:36;100603.13;;;12.18;100.00
21545;BME280;10933;50.754;11.508;2022-07-09T01:15:12;100600.31;;;12.13;100.00
21545;BME280;10933;50.754;11.508;2022-07-09T01:17:48;100597.59;;;12.13;100.00
21545;BME280;10933;50.754;11.508;2022-07-09T01:20:30;100601.28;;;12.07;100.00
21545;BME280;10933;50.754;11.508;2022-07-09T01:23:02;100597.59;;;12.01;100.00
21545;BME280;10933;50.754;11.508;2022-07-09T01:25:37;100592.66;;;11.98;100.00
21545;BME280;10933;50.754;11.508;2022-07-09T01:28:05;100588.91;;;11.88;100.00
21545;BME280;10933;50.754;11.508;2022-07-09T01:30:33;100590.44;;;11.84;100.00
21545;BME280;10933;50.754;11.508;2022-07-09T01:33:00;100592.06;;;11.85;100.00
21545;BME280;10933;50.754;11.508;2022-07-09T01:35:31;100589.63;;;11.95;100.00
21545;BME280;10933;50.754;11.508;2022-07-09T01:37:57;100587.38;;;11.92;100.00
21545;BME280;10933;50.754;11.508;2022-07-09T01:40:23;100580.06;;;11.92;100.00
21545;BME280;10933;50.754;11.508;2022-07-09T01:42:50;100572.78;;;11.93;100.00
21545;BME280;10933;50.754;11.508;2022-07-09T01:45:17;100567.50;;;11.98;100.00
21545;BME280;10933;50.754;11.508;2022-07-09T01:47:44;100571.97;;;11.92;100.00
21545;BME280;10933;50.754;11.508;2022-07-09T01:50:10;100565.38;;;11.88;100.00
21545;BME280;10933;50.754;11.508;2022-07-09T01:52:36;100562.34;;;11.85;100.00
21545;BME280;10933;50.754;11.508;2022-07-09T01:55:03;100558.81;;;11.84;100.00
21545;BME280;10933;50.754;11.508;2022-07-09T01:57:29;100542.69;;;11.89;100.00
21545;BME280;10933;50.754;11.508;2022-07-09T01:59:55;100547.75;;;11.86;100.00
21545;BME280;10933;50.754;11.508;2022-07-09T02:02:22;100544.09;;;11.92;100.00
21545;BME280;10933;50.754;11.508;2022-07-09T02:05:03;100547.19;;;11.84;100.00
21545;BME280;10933;50.754;11.508;2022-07-09T02:07:47;100539.31;;;11.82;100.00
21545;BME280;10933;50.754;11.508;2022-07-09T02:10:21;100555.53;;;11.82;100.00
21545;BME280;10933;50.754;11.508;2022-07-09T02:12:47;100543.47;;;11.78;100.00
21545;BME280;10933;50.754;11.508;2022-07-09T02:15:13;100546.91;;;11.73;100.00
21545;BME280;10933;50.754;11.508;2022-07-09T02:18:09;100539.72;;;11.67;100.00
21545;BME280;10933;50.754;11.508;2022-07-09T02:21:18;100539.25;;;11.70;100.00
21545;BME280;10933;50.754;11.508;2022-07-09T02:23:51;100541.03;;;11.76;100.00
21545;BME280;10933;50.754;11.508;2022-07-09T02:26:22;100539.06;;;11.84;100.00
21545;BME280;10933;50.754;11.508;2022-07-09T02:28:52;100540.81;;;11.90;100.00
21545;BME280;10933;50.754;11.508;2022-07-09T02:31:18;100538.13;;;11.90;100.00
21545;BME280;10933;50.754;11.508;2022-07-09T02:33:44;100544.34;;;11.90;100.00
21545;BME280;10933;50.754;11.508;2022-07-09T02:36:11;100532.03;;;11.94;100.00
21545;BME280;10933;50.754;11.508;2022-07-09T02:38:46;100533.28;;;11.92;100.00
21545;BME280;10933;50.754;11.508;2022-07-09T02:41:23;100534.59;;;12.01;100.00
21545;BME280;10933;50.754;11.508;2022-07-09T02:43:52;100526.47;;;12.01;100.00
21545;BME280;10933;50.754;11.508;2022-07-09T02:46:21;100531.63;;;12.02;100.00
21545;BME280;10933;50.754;11.508;2022-07-09T02:48:51;100530.00;;;12.01;100.00
21545;BME280;10933;50.754;11.508;2022-07-09T02:51:25;100529.28;;;12.06;100.00
21545;BME280;10933;50.754;11.508;2022-07-09T02:54:04;100526.81;;;12.04;100.00
21545;BME280;10933;50.754;11.508;2022-07-09T02:56:38;100529.28;;;12.06;100.00
21545;BME280;10933;50.754;11.508;2022-07-09T02:59:07;100527.63;;;12.05;100.00
21545;BME280;10933;50.754;11.508;2022-07-09T03:02:05;100531.88;;;12.01;100.00
21545;BME280;10933;50.754;11.508;2022-07-09T03:04:47;100538.25;;;11.95;100.00
21545;BME280;10933;50.754;11.508;2022-07-09T03:07:22;100533.78;;;11.89;100.00
21545;BME280;10933;50.754;11.508;2022-07-09T03:10:17;100534.47;;;11.96;100.00
21545;BME280;10933;50.754;11.508;2022-07-09T03:12:56;100529.06;;;11.96;100.00
21545;BME280;10933;50.754;11.508;2022-07-09T03:15:28;100532.34;;;11.98;100.00
21545;BME280;10933;50.754;11.508;2022-07-09T03:18:04;100534.59;;;12.01;100.00
21545;BME280;10933;50.754;11.508;2022-07-09T03:20:43;100531.16;;;12.05;100.00
21545;BME280;10933;50.754;11.508;2022-07-09T03:23:40;100536.13;;;12.08;100.00
21545;BME280;10933;50.754;11.508;2022-07-09T03:26:07;100534.91;;;12.16;100.00
21545;BME280;10933;50.754;11.508;2022-07-09T03:28:41;100538.19;;;12.18;100.00
21545;BME280;10933;50.754;11.508;2022-07-09T03:31:10;100534.09;;;12.27;100.00
21545;BME280;10933;50.754;11.508;2022-07-09T03:33:37;100539.63;;;12.32;100.00
21545;BME280;10933;50.754;11.508;2022-07-09T03:36:03;100541.72;;;12.19;100.00
21545;BME280;10933;50.754;11.508;2022-07-09T03:38:30;100537.75;;;12.21;100.00
21545;BME280;10933;50.754;11.508;2022-07-09T03:40:56;100542.78;;;12.18;100.00
21545;BME280;10933;50.754;11.508;2022-07-09T03:43:25;100538.34;;;12.23;100.00
21545;BME280;10933;50.754;11.508;2022-07-09T03:45:58;100540.56;;;12.26;100.00
21545;BME280;10933;50.754;11.508;2022-07-09T03:48:28;100538.06;;;12.36;100.00
21545;BME280;10933;50.754;11.508;2022-07-09T03:50:54;100534.97;;;12.45;100.00
21545;BME280;10933;50.754;11.508;2022-07-09T03:53:21;100531.19;;;12.57;100.00
21545;BME280;10933;50.754;11.508;2022-07-09T03:55:47;100542.47;;;12.66;100.00
21545;BME280;10933;50.754;11.508;2022-07-09T03:58:13;100541.88;;;12.64;100.00
21545;BME280;10933;50.754;11.508;2022-07-09T04:00:39;100536.66;;;12.74;100.00
21545;BME280;10933;50.754;11.508;2022-07-09T04:03:11;100546.25;;;12.53;100.00
21545;BME280;10933;50.754;11.508;2022-07-09T04:06:16;100541.72;;;12.30;100.00
21545;BME280;10933;50.754;11.508;2022-07-09T04:08:48;100543.63;;;12.18;100.00
21545;BME280;10933;50.754;11.508;2022-07-09T04:11:14;100554.81;;;12.22;100.00
21545;BME280;10933;50.754;11.508;2022-07-09T04:14:11;100549.72;;;12.25;100.00
21545;BME280;10933;50.754;11.508;2022-07-09T04:16:55;100543.47;;;12.36;100.00
21545;BME280;10933;50.754;11.508;2022-07-09T04:19:29;100538.25;;;12.58;100.00
21545;BME280;10933;50.754;11.508;2022-07-09T04:22:14;100530.66;;;13.01;100.00
21545;BME280;10933;50.754;11.508;2022-07-09T04:25:01;100537.41;;;12.98;100.00
21545;BME280;10933;50.754;11.508;2022-07-09T04:27:30;100531.09;;;13.38;100.00
21545;BME280;10933;50.754;11.508;2022-07-09T04:30:00;100528.34;;;14.27;100.00
21545;BME280;10933;50.754;11.508;2022-07-09T04:32:26;100520.59;;;14.13;100.00
21545;BME280;10933;50.754;11.508;2022-07-09T04:34:52;100518.31;;;14.71;100.00
21545;BME280;10933;50.754;11.508;2022-07-09T04:37:18;100518.03;;;15.21;100.00
21545;BME280;10933;50.754;11.508;2022-07-09T04:39:45;100511.91;;;16.05;100.00
21545;BME280;10933;50.754;11.508;2022-07-09T04:42:11;100507.84;;;16.13;100.00
21545;BME280;10933;50.754;11.508;2022-07-09T04:45:08;100511.00;;;15.89;100.00
21545;BME280;10933;50.754;11.508;2022-07-09T04:47:39;100508.13;;;15.69;100.00
21545;BME280;10933;50.754;11.508;2022-07-09T04:50:14;100500.34;;;15.51;100.00
21545;BME280;10933;50.754;11.508;2022-07-09T04:53:00;100508.75;;;15.81;100.00
21545;BME280;10933;50.754;11.508;2022-07-09T04:55:29;100511.41;;;15.71;100.00
21545;BME280;10933;50.754;11.508;2022-07-09T04:58:06;100509.50;;;16.14;100.00
21545;BME280;10933;50.754;11.508;2022-07-09T05:00:44;100507.38;;;17.24;100.00
21545;BME280;10933;50.754;11.508;2022-07-09T05:03:11;100515.03;;;17.17;100.00
21545;BME280;10933;50.754;11.508;2022-07-09T05:05:37;100513.06;;;16.19;100.00
21545;BME280;10933;50.754;11.508;2022-07-09T05:08:03;100509.34;;;15.88;100.00
21545;BME280;10933;50.754;11.508;2022-07-09T05:10:30;100510.81;;;15.64;100.00
21545;BME280;10933;50.754;11.508;2022-07-09T05:13:00;100498.50;;;15.94;100.00
21545;BME280;10933;50.754;11.508;2022-07-09T05:15:27;100503.97;;;15.29;100.00
21545;BME280;10933;50.754;11.508;2022-07-09T05:17:56;100509.00;;;15.48;100.00
21545;BME280;10933;50.754;11.508;2022-07-09T05:20:31;100514.72;;;15.46;100.00
21545;BME280;10933;50.754;11.508;2022-07-09T05:23:00;100510.44;;;15.55;100.00
21545;BME280;10933;50.754;11.508;2022-07-09T05:28:39;100515.84;;;15.50;100.00
21545;BME280;10933;50.754;11.508;2022-07-09T05:31:08;100510.69;;;15.54;100.00
21545;BME280;10933;50.754;11.508;2022-07-09T05:33:56;100516.41;;;15.52;100.00
21545;BME280;10933;50.754;11.508;2022-07-09T05:36:25;100514.31;;;15.59;100.00
21545;BME280;10933;50.754;11.508;2022-07-09T05:38:51;100513.63;;;15.15;100.00
21545;BME280;10933;50.754;11.508;2022-07-09T05:41:17;100520.81;;;15.26;100.00
21545;BME280;10933;50.754;11.508;2022-07-09T05:43:45;100516.91;;;15.17;100.00
21545;BME280;10933;50.754;11.508;2022-07-09T05:46:11;100516.69;;;14.97;100.00
21545;BME280;10933;50.754;11.508;2022-07-09T05:48:37;100514.72;;;15.14;100.00
21545;BME280;10933;50.754;11.508;2022-07-09T05:51:03;100517.44;;;15.14;100.00
21545;BME280;10933;50.754;11.508;2022-07-09T05:53:32;100518.16;;;15.37;100.00
21545;BME280;10933;50.754;11.508;2022-07-09T05:56:03;100516.78;;;15.34;100.00
21545;BME280;10933;50.754;11.508;2022-07-09T05:58:37;100514.75;;;15.19;100.00
21545;BME280;10933;50.754;11.508;2022-07-09T06:01:05;100515.34;;;14.72;100.00
21545;BME280;10933;50.754;11.508;2022-07-09T06:03:35;100511.06;;;15.30;100.00
21545;BME280;10933;50.754;11.508;2022-07-09T06:06:01;100502.44;;;15.39;100.00
21545;BME280;10933;50.754;11.508;2022-07-09T06:08:27;100499.97;;;15.74;100.00
21545;BME280;10933;50.754;11.508;2022-07-09T06:10:53;100499.91;;;16.01;100.00
21545;BME280;10933;50.754;11.508;2022-07-09T06:13:19;100503.03;;;16.30;100.00
21545;BME280;10933;50.754;11.508;2022-07-09T06:15:45;100503.28;;;15.76;100.00
21545;BME280;10933;50.754;11.508;2022-07-09T06:18:12;100502.38;;;16.08;100.00
21545;BME280;10933;50.754;11.508;2022-07-09T06:20:39;100502.53;;;16.43;100.00
21545;BME280;10933;50.754;11.508;2022-07-09T06:23:05;100507.38;;;16.26;100.00
21545;BME280;10933;50.754;11.508;2022-07-09T06:25:32;100500.75;;;16.69;100.00
21545;BME280;10933;50.754;11.508;2022-07-09T06:27:58;100510.44;;;16.40;100.00
21545;BME280;10933;50.754;11.508;2022-07-09T06:30:24;100507.81;;;16.03;100.00
21545;BME280;10933;50.754;11.508;2022-07-09T06:32:50;100497.31;;;16.27;100.00
21545;BME280;10933;50.754;11.508;2022-07-09T06:35:17;100494.81;;;16.15;100.00
21545;BME280;10933;50.754;11.508;2022-07-09T06:37:44;100495.97;;;15.82;100.00
21545;BME280;10933;50.754;11.508;2022-07-09T06:40:10;100499.22;;;16.31;100.00
21545;BME280;10933;50.754;11.508;2022-07-09T06:42:36;100493.91;;;16.67;100.00
21545;BME280;10933;50.754;11.508;2022-07-09T06:45:02;100504.13;;;16.34;100.00
21545;BME280;10933;50.754;11.508;2022-07-09T06:47:29;100500.38;;;15.88;100.00
21545;BME280;10933;50.754;11.508;2022-07-09T06:49:55;100510.41;;;16.35;100.00
21545;BME280;10933;50.754;11.508;2022-07-09T06:52:21;100508.03;;;16.54;100.00
21545;BME280;10933;50.754;11.508;2022-07-09T06:54:47;100505.00;;;16.40;100.00
21545;BME280;10933;50.754;11.508;2022-07-09T06:57:13;100505.09;;;16.08;100.00
21545;BME280;10933;50.754;11.508;2022-07-09T06:59:41;100502.59;;;16.64;100.00
21545;BME280;10933;50.754;11.508;2022-07-09T07:02:07;100507.19;;;16.48;100.00
21545;BME280;10933;50.754;11.508;2022-07-09T07:04:34;100498.50;;;16.56;100.00
21545;BME280;10933;50.754;11.508;2022-07-09T07:07:00;100505.75;;;16.30;100.00
21545;BME280;10933;50.754;11.508;2022-07-09T07:09:26;100496.72;;;16.77;100.00
21545;BME280;10933;50.754;11.508;2022-07-09T07:11:52;100497.28;;;16.94;100.00
21545;BME280;10933;50.754;11.508;2022-07-09T07:14:18;100491.84;;;17.25;100.00
21545;BME280;10933;50.754;11.508;2022-07-09T07:16:45;100485.84;;;17.02;100.00
21545;BME280;10933;50.754;11.508;2022-07-09T07:19:11;100487.50;;;17.34;100.00
21545;BME280;10933;50.754;11.508;2022-07-09T07:21:38;100487.75;;;17.22;100.00
21545;BME280;10933;50.754;11.508;2022-07-09T07:24:05;100479.56;;;17.63;100.00
21545;BME280;10933;50.754;11.508;2022-07-09T07:26:32;100479.03;;;17.71;100.00
21545;BME280;10933;50.754;11.508;2022-07-09T07:28:59;100474.81;;;18.19;100.00
21545;BME280;10933;50.754;11.508;2022-07-09T07:31:25;100469.44;;;18.59;100.00
21545;BME280;10933;50.754;11.508;2022-07-09T07:33:52;100468.44;;;18.94;100.00
21545;BME280;10933;50.754;11.508;2022-07-09T07:36:18;100470.56;;;19.02;100.00
21545;BME280;10933;50.754;11.508;2022-07-09T07:38:44;100472.06;;;19.23;100.00
21545;BME280;10933;50.754;11.508;2022-07-09T07:41:14;100460.81;;;19.54;100.00
21545;BME280;10933;50.754;11.508;2022-07-09T07:43:42;100456.28;;;19.10;100.00
21545;BME280;10933;50.754;11.508;2022-07-09T07:46:08;100450.19;;;19.81;100.00
21545;BME280;10933;50.754;11.508;2022-07-09T07:48:34;100449.81;;;19.64;100.00
21545;BME280;10933;50.754;11.508;2022-07-09T07:51:04;100449.13;;;20.25;100.00
21545;BME280;10933;50.754;11.508;2022-07-09T07:53:31;100446.91;;;20.27;100.00
21545;BME280;10933;50.754;11.508;2022-07-09T07:55:58;100457.06;;;20.88;100.00
21545;BME280;10933;50.754;11.508;2022-07-09T07:58:24;100454.47;;;20.97;100.00
21545;BME280;10933;50.754;11.508;2022-07-09T08:00:50;100443.84;;;21.28;100.00
21545;BME280;10933;50.754;11.508;2022-07-09T08:03:16;100445.75;;;20.33;100.00
21545;BME280;10933;50.754;11.508;2022-07-09T08:05:43;100441.16;;;19.57;100.00
21545;BME280;10933;50.754;11.508;2022-07-09T08:08:09;100444.47;;;19.20;100.00
21545;BME280;10933;50.754;11.508;2022-07-09T08:10:35;100436.81;;;19.17;100.00
21545;BME280;10933;50.754;11.508;2022-07-09T08:13:01;100443.34;;;19.55;100.00
21545;BME280;10933;50.754;11.508;2022-07-09T08:15:27;100438.63;;;19.31;100.00
21545;BME280;10933;50.754;11.508;2022-07-09T08:17:53;100435.09;;;19.60;100.00
21545;BME280;10933;50.754;11.508;2022-07-09T08:20:20;100434.13;;;19.40;100.00
21545;BME280;10933;50.754;11.508;2022-07-09T08:22:47;100429.25;;;19.37;100.00
21545;BME280;10933;50.754;11.508;2022-07-09T08:25:13;100427.97;;;18.96;100.00
21545;BME280;10933;50.754;11.508;2022-07-09T08:27:40;100425.09;;;19.45;100.00
21545;BME280;10933;50.754;11.508;2022-07-09T08:30:06;100424.16;;;19.84;100.00
21545;BME280;10933;50.754;11.508;2022-07-09T08:32:33;100413.50;;;19.24;100.00
21545;BME280;10933;50.754;11.508;2022-07-09T08:34:59;100423.75;;;19.95;100.00
21545;BME280;10933;50.754;11.508;2022-07-09T08:37:25;100427.72;;;20.70;100.00
21545;BME280;10933;50.754;11.508;2022-07-09T08:39:52;100427.72;;;20.70;100.00
21545;BME280;10933;50.754;11.508;2022-07-09T08:42:18;100422.72;;;20.91;100.00
21545;BME280;10933;50.754;11.508;2022-07-09T08:44:47;100412.16;;;20.65;100.00
21545;BME280;10933;50.754;11.508;2022-07-09T08:47:15;100415.72;;;20.47;100.00
21545;BME280;10933;50.754;11.508;2022-07-09T08:49:42;100415.19;;;20.64;100.00
21545;BME280;10933;50.754;11.508;2022-07-09T08:52:10;100408.34;;;19.99;100.00
21545;BME280;10933;50.754;11.508;2022-07-09T08:54:36;100403.41;;;19.78;100.00
21545;BME280;10933;50.754;11.508;2022-07-09T08:57:04;100395.97;;;19.83;100.00
21545;BME280;10933;50.754;11.508;2022-07-09T08:59:32;100402.28;;;19.79;100.00
21545;BME280;10933;50.754;11.508;2022-07-09T09:02:02;100399.84;;;19.77;100.00
21545;BME280;10933;50.754;11.508;2022-07-09T09:04:29;100398.44;;;20.04;100.00
21545;BME280;10933;50.754;11.508;2022-07-09T09:06:55;100394.97;;;19.74;100.00
21545;BME280;10933;50.754;11.508;2022-07-09T09:09:22;100401.97;;;20.28;100.00
21545;BME280;10933;50.754;11.508;2022-07-09T09:11:51;100402.16;;;20.13;100.00
21545;BME280;10933;50.754;11.508;2022-07-09T09:14:22;100404.44;;;20.06;100.00
21545;BME280;10933;50.754;11.508;2022-07-09T09:16:49;100400.78;;;19.91;100.00
21545;BME280;10933;50.754;11.508;2022-07-09T09:19:15;100407.13;;;20.11;100.00
21545;BME280;10933;50.754;11.508;2022-07-09T09:21:41;100408.25;;;20.10;100.00
21545;BME280;10933;50.754;11.508;2022-07-09T09:24:08;100407.19;;;19.82;100.00
21545;BME280;10933;50.754;11.508;2022-07-09T09:26:34;100403.09;;;20.03;100.00
21545;BME280;10933;50.754;11.508;2022-07-09T09:29:03;100400.38;;;20.03;100.00
21545;BME280;10933;50.754;11.508;2022-07-09T09:31:32;100401.84;;;19.95;100.00
21545;BME280;10933;50.754;11.508;2022-07-09T09:34:12;100396.19;;;20.29;100.00
21545;BME280;10933;50.754;11.508;2022-07-09T09:36:40;100402.59;;;20.20;100.00
21545;BME280;10933;50.754;11.508;2022-07-09T09:41:44;100397.28;;;20.52;100.00
21545;BME280;10933;50.754;11.508;2022-07-09T09:44:12;100396.56;;;20.98;100.00
21545;BME280;10933;50.754;11.508;2022-07-09T09:46:40;100397.97;;;20.20;100.00
21545;BME280;10933;50.754;11.508;2022-07-09T09:49:07;100396.25;;;20.48;100.00
21545;BME280;10933;50.754;11.508;2022-07-09T09:51:42;100385.03;;;20.64;100.00
21545;BME280;10933;50.754;11.508;2022-07-09T09:54:11;100379.34;;;21.11;100.00
21545;BME280;10933;50.754;11.508;2022-07-09T09:56:39;100387.66;;;21.39;100.00
21545;BME280;10933;50.754;11.508;2022-07-09T09:59:05;100379.66;;;20.91;100.00
21545;BME280;10933;50.754;11.508;2022-07-09T10:01:32;100383.59;;;21.50;100.00
21545;BME280;10933;50.754;11.508;2022-07-09T10:03:59;100379.25;;;20.84;100.00
21545;BME280;10933;50.754;11.508;2022-07-09T10:06:26;100379.09;;;21.27;100.00
21545;BME280;10933;50.754;11.508;2022-07-09T10:08:53;100377.38;;;21.31;100.00
21545;BME280;10933;50.754;11.508;2022-07-09T10:11:20;100367.53;;;20.78;100.00
21545;BME280;10933;50.754;11.508;2022-07-09T10:13:55;100382.16;;;21.06;100.00
21545;BME280;10933;50.754;11.508;2022-07-09T10:16:38;100376.19;;;22.19;100.00
21545;BME280;10933;50.754;11.508;2022-07-09T10:19:05;100359.09;;;21.54;100.00
21545;BME280;10933;50.754;11.508;2022-07-09T10:21:34;100367.34;;;21.67;100.00
21545;BME280;10933;50.754;11.508;2022-07-09T10:24:02;100356.47;;;21.76;100.00
21545;BME280;10933;50.754;11.508;2022-07-09T10:29:28;100352.69;;;21.58;100.00
21545;BME280;10933;50.754;11.508;2022-07-09T10:31:55;100355.44;;;21.58;100.00
21545;BME280;10933;50.754;11.508;2022-07-09T10:34:31;100358.91;;;21.50;100.00
21545;BME280;10933;50.754;11.508;2022-07-09T10:37:03;100364.94;;;23.33;100.00
21545;BME280;10933;50.754;11.508;2022-07-09T10:39:31;100367.41;;;24.48;99.04
21545;BME280;10933;50.754;11.508;2022-07-09T10:42:19;100364.72;;;24.00;100.00
21545;BME280;10933;50.754;11.508;2022-07-09T10:44:46;100355.22;;;21.96;100.00
21545;BME280;10933;50.754;11.508;2022-07-09T10:47:15;100352.09;;;19.88;100.00
21545;BME280;10933;50.754;11.508;2022-07-09T10:49:42;100349.06;;;19.66;100.00
21545;BME280;10933;50.754;11.508;2022-07-09T10:52:08;100354.75;;;19.46;100.00
21545;BME280;10933;50.754;11.508;2022-07-09T10:54:44;100352.06;;;19.40;100.00
21545;BME280;10933;50.754;11.508;2022-07-09T10:57:11;100357.94;;;19.00;100.00
21545;BME280;10933;50.754;11.508;2022-07-09T10:59:38;100357.78;;;18.86;100.00
21545;BME280;10933;50.754;11.508;2022-07-09T11:02:04;100363.59;;;18.74;100.00
21545;BME280;10933;50.754;11.508;2022-07-09T11:04:32;100359.47;;;18.77;100.00
21545;BME280;10933;50.754;11.508;2022-07-09T11:06:59;100371.56;;;18.71;100.00
21545;BME280;10933;50.754;11.508;2022-07-09T11:09:26;100370.03;;;18.94;100.00
21545;BME280;10933;50.754;11.508;2022-07-09T11:11:56;100376.81;;;18.13;100.00
21545;BME280;10933;50.754;11.508;2022-07-09T11:14:22;100390.31;;;17.84;100.00
21545;BME280;10933;50.754;11.508;2022-07-09T11:16:56;100379.50;;;17.43;100.00
21545;BME280;10933;50.754;11.508;2022-07-09T11:19:24;100386.03;;;17.27;100.00
21545;BME280;10933;50.754;11.508;2022-07-09T11:21:59;100396.13;;;17.36;100.00
21545;BME280;10933;50.754;11.508;2022-07-09T11:24:26;100380.81;;;17.56;100.00
21545;BME280;10933;50.754;11.508;2022-07-09T11:26:52;100379.44;;;18.28;100.00
21545;BME280;10933;50.754;11.508;2022-07-09T11:29:18;100365.97;;;18.47;100.00
21545;BME280;10933;50.754;11.508;2022-07-09T11:31:50;100368.56;;;18.67;100.00
21545;BME280;10933;50.754;11.508;2022-07-09T11:34:17;100367.63;;;19.16;100.00
21545;BME280;10933;50.754;11.508;2022-07-09T11:36:51;100362.78;;;20.09;100.00
21545;BME280;10933;50.754;11.508;2022-07-09T11:39:33;100360.06;;;20.65;100.00
21545;BME280;10933;50.754;11.508;2022-07-09T11:42:00;100359.41;;;21.80;100.00
21545;BME280;10933;50.754;11.508;2022-07-09T11:44:31;100353.00;;;20.40;100.00
21545;BME280;10933;50.754;11.508;2022-07-09T11:49:37;100339.81;;;20.80;100.00
21545;BME280;10933;50.754;11.508;2022-07-09T11:52:15;100338.34;;;20.31;100.00
21545;BME280;10933;50.754;11.508;2022-07-09T11:54:57;100338.66;;;21.46;100.00
21545;BME280;10933;50.754;11.508;2022-07-09T11:57:24;100333.59;;;21.53;100.00
21545;BME280;10933;50.754;11.508;2022-07-09T11:59:52;100326.44;;;20.92;100.00
21545;BME280;10933;50.754;11.508;2022-07-09T12:02:35;100322.09;;;20.59;100.00
21545;BME280;10933;50.754;11.508;2022-07-09T12:05:07;100321.91;;;20.31;100.00
21545;BME280;10933;50.754;11.508;2022-07-09T12:07:35;100312.88;;;20.31;100.00
21545;BME280;10933;50.754;11.508;2022-07-09T12:10:11;100311.13;;;20.21;100.00
21545;BME280;10933;50.754;11.508;2022-07-09T12:12:37;100306.28;;;20.13;100.00
21545;BME280;10933;50.754;11.508;2022-07-09T12:15:05;100302.97;;;20.16;100.00
21545;BME280;10933;50.754;11.508;2022-07-09T12:17:31;100294.00;;;20.29;100.00
21545;BME280;10933;50.754;11.508;2022-07-09T12:19:58;100289.31;;;20.29;100.00
21545;BME280;10933;50.754;11.508;2022-07-09T12:22:25;100294.50;;;20.31;100.00
21545;BME280;10933;50.754;11.508;2022-07-09T12:24:52;100286.66;;;20.06;100.00
21545;BME280;10933;50.754;11.508;2022-07-09T12:27:19;100285.91;;;20.56;100.00
21545;BME280;10933;50.754;11.508;2022-07-09T12:29:48;100292.44;;;20.61;100.00
21545;BME280;10933;50.754;11.508;2022-07-09T12:32:14;100272.75;;;20.59;100.00
21545;BME280;10933;50.754;11.508;2022-07-09T12:34:40;100276.75;;;20.47;100.00
21545;BME280;10933;50.754;11.508;2022-07-09T12:37:06;100268.28;;;20.63;100.00
21545;BME280;10933;50.754;11.508;2022-07-09T12:39:33;100265.72;;;20.15;100.00
21545;BME280;10933;50.754;11.508;2022-07-09T12:41:59;100277.28;;;20.96;100.00
21545;BME280;10933;50.754;11.508;2022-07-09T12:44:26;100280.00;;;21.56;100.00
21545;BME280;10933;50.754;11.508;2022-07-09T12:46:53;100279.38;;;21.72;100.00
21545;BME280;10933;50.754;11.508;2022-07-09T12:49:19;100272.03;;;20.99;100.00
21545;BME280;10933;50.754;11.508;2022-07-09T12:51:45;100272.19;;;21.35;100.00
21545;BME280;10933;50.754;11.508;2022-07-09T12:54:11;100264.66;;;20.81;100.00
21545;BME280;10933;50.754;11.508;2022-07-09T12:56:38;100252.09;;;20.94;100.00
21545;BME280;10933;50.754;11.508;2022-07-09T12:59:04;100254.38;;;21.60;100.00
21545;BME280;10933;50.754;11.508;2022-07-09T13:01:30;100259.72;;;21.79;100.00